createdAt,value
2024-04-30T01:26:00.528Z,3.03
2024-04-30T01:28:45.256Z,2.70
2024-04-30T01:31:22.190Z,3.00
2024-04-30T01:34:00.985Z,3.42
2024-04-30T01:36:34.316Z,3.10
2024-04-30T01:39:20.852Z,3.03
2024-04-30T01:41:49.441Z,2.87
2024-04-30T01:44:16.633Z,3.15
2024-04-30T01:46:50.575Z,3.35
2024-04-30T01:49:18.170Z,2.95
2024-04-30T01:51:46.879Z,3.00
2024-04-30T01:54:14.576Z,2.67
2024-04-30T01:56:43.752Z,2.45
2024-04-30T02:04:42.411Z,2.70
2024-04-30T02:07:14.264Z,3.40
2024-04-30T02:09:42.624Z,3.40
2024-04-30T02:12:12.863Z,3.50
2024-04-30T02:14:42.586Z,3.17
2024-04-30T02:17:17.031Z,3.67
2024-04-30T02:19:48.387Z,3.20
2024-04-30T02:22:19.049Z,3.45
2024-04-30T02:24:49.819Z,4.32
2024-04-30T02:27:16.859Z,3.78
2024-04-30T02:29:45.092Z,3.88
2024-04-30T02:32:30.778Z,3.83
2024-04-30T02:35:02.086Z,3.58
2024-04-30T02:37:30.868Z,4.35
2024-04-30T02:40:00.112Z,4.50
2024-04-30T02:42:31.083Z,5.20
2024-04-30T02:45:00.439Z,5.03
2024-04-30T02:47:30.602Z,5.13
2024-04-30T02:49:57.830Z,5.18
2024-04-30T02:52:28.474Z,5.45
2024-04-30T02:54:55.404Z,5.47
2024-04-30T02:57:27.170Z,5.27
2024-04-30T02:59:54.398Z,5.85
2024-04-30T03:05:02.715Z,5.38
2024-04-30T03:07:31.371Z,5.38
2024-04-30T03:10:08.890Z,5.63
2024-04-30T03:15:25.850Z,5.72
2024-04-30T03:17:55.334Z,5.10
2024-04-30T03:23:05.251Z,5.07
2024-04-30T03:25:33.688Z,5.60
2024-04-30T03:28:02.939Z,5.13
2024-04-30T03:30:31.615Z,4.97
2024-04-30T03:32:59.494Z,4.78
2024-04-30T03:35:27.970Z,5.03
2024-04-30T03:37:59.804Z,4.80
2024-04-30T03:40:26.650Z,5.15
2024-04-30T03:42:54.621Z,4.90
2024-04-30T03:48:02.059Z,5.00
2024-04-30T03:50:28.882Z,4.82
2024-04-30T03:52:56.826Z,4.57
2024-04-30T03:55:23.972Z,4.20
2024-04-30T04:00:35.058Z,4.17
2024-04-30T04:03:01.934Z,4.18
2024-04-30T04:05:29.020Z,4.80
2024-04-30T04:07:55.913Z,4.50
2024-04-30T04:10:23.238Z,4.03
2024-04-30T04:13:08.812Z,3.53
2024-04-30T04:15:37.328Z,4.10
2024-04-30T04:18:04.450Z,4.15
2024-04-30T04:20:31.197Z,3.72
2024-04-30T04:22:58.058Z,4.50
2024-04-30T04:25:24.856Z,4.17
2024-04-30T04:27:51.629Z,4.07
2024-04-30T04:30:18.356Z,4.18
2024-04-30T04:32:45.223Z,4.15
2024-04-30T04:35:12.011Z,4.05
2024-04-30T04:37:38.837Z,4.17
2024-04-30T04:40:06.291Z,4.28
2024-04-30T04:42:33.054Z,4.25
2024-04-30T04:44:59.743Z,3.75
2024-04-30T04:47:26.548Z,3.92
2024-04-30T04:49:53.472Z,3.70
2024-04-30T04:52:20.396Z,4.03
2024-04-30T04:54:47.114Z,4.53
2024-04-30T04:57:13.985Z,4.13
2024-04-30T04:59:40.756Z,4.40
2024-04-30T05:02:08.460Z,4.13
2024-04-30T05:04:35.359Z,3.85
2024-04-30T05:07:02.783Z,4.03
2024-04-30T05:09:30.096Z,4.63
2024-04-30T05:11:56.944Z,4.07
2024-04-30T05:14:24.044Z,4.23
2024-04-30T05:16:51.058Z,4.47
2024-04-30T05:19:18.281Z,4.13
2024-04-30T05:21:45.084Z,3.83
2024-04-30T05:24:11.900Z,4.32
2024-04-30T05:26:38.629Z,4.37
2024-04-30T05:29:05.341Z,4.25
2024-04-30T05:31:37.404Z,4.40
2024-04-30T05:34:04.289Z,4.30
2024-04-30T05:36:31.012Z,4.32
2024-04-30T05:39:01.107Z,4.30
2024-04-30T05:41:28.843Z,4.25
2024-04-30T05:43:55.973Z,4.10
2024-04-30T05:46:22.771Z,4.43
2024-04-30T05:48:49.586Z,4.07
2024-04-30T05:51:16.415Z,3.63
2024-04-30T05:53:43.183Z,4.13
2024-04-30T05:56:10.002Z,5.10
2024-04-30T05:58:36.831Z,4.30
2024-04-30T06:01:03.817Z,4.10
2024-04-30T06:03:30.693Z,4.37
2024-04-30T06:05:57.507Z,4.10
2024-04-30T06:08:24.240Z,4.40
2024-04-30T06:10:51.257Z,4.20
2024-04-30T06:13:18.107Z,4.47
2024-04-30T06:15:44.890Z,4.53
2024-04-30T06:18:11.808Z,4.35
2024-04-30T06:20:40.299Z,4.47
2024-04-30T06:23:07.128Z,4.50
2024-04-30T06:25:33.915Z,4.18
2024-04-30T06:28:00.731Z,4.67
2024-04-30T06:30:27.528Z,4.28
2024-04-30T06:32:54.384Z,4.28
2024-04-30T06:35:21.486Z,4.10
2024-04-30T06:37:53.707Z,4.47
2024-04-30T06:40:21.020Z,4.40
2024-04-30T06:42:48.347Z,4.72
2024-04-30T06:45:17.564Z,4.68
2024-04-30T06:47:45.080Z,4.40
2024-04-30T06:50:12.225Z,4.60
2024-04-30T06:52:38.994Z,5.43
2024-04-30T06:55:06.021Z,6.32
2024-04-30T06:57:32.716Z,4.50
2024-04-30T06:59:59.567Z,4.43
2024-04-30T07:02:26.387Z,4.25
2024-04-30T07:04:53.943Z,3.73
2024-04-30T07:07:21.366Z,4.68
2024-04-30T07:09:48.146Z,4.40
2024-04-30T07:12:15.014Z,4.07
2024-04-30T07:14:41.753Z,4.40
2024-04-30T07:17:09.306Z,4.23
2024-04-30T07:19:36.561Z,4.03
2024-04-30T07:22:04.361Z,4.40
2024-04-30T07:24:31.092Z,4.82
2024-04-30T07:26:57.909Z,4.35
2024-04-30T07:29:24.781Z,4.10
2024-04-30T07:31:52.313Z,4.18
2024-04-30T07:34:19.250Z,4.50
2024-04-30T07:36:45.969Z,4.28
2024-04-30T07:39:12.663Z,5.22
2024-04-30T07:41:39.317Z,4.50
2024-04-30T07:44:05.989Z,4.90
2024-04-30T07:46:32.667Z,5.15
2024-04-30T07:48:59.324Z,4.85
2024-04-30T07:51:25.974Z,4.97
2024-04-30T07:53:52.696Z,4.67
2024-04-30T07:56:19.330Z,4.50
2024-04-30T07:58:46.035Z,4.60
2024-04-30T08:01:12.962Z,4.30
2024-04-30T08:03:39.915Z,4.10
2024-04-30T08:06:14.081Z,3.87
2024-04-30T08:08:45.079Z,4.15
2024-04-30T08:11:11.860Z,4.13
2024-04-30T08:13:39.104Z,3.72
2024-04-30T08:16:06.281Z,4.20
2024-04-30T08:18:32.970Z,4.10
2024-04-30T08:20:59.797Z,3.72
2024-04-30T08:23:26.442Z,3.65
2024-04-30T08:25:53.163Z,3.78
2024-04-30T08:28:19.847Z,3.97
2024-04-30T08:30:47.061Z,3.37
2024-04-30T08:33:14.234Z,3.28
2024-04-30T08:35:42.397Z,3.42
2024-04-30T08:38:09.634Z,4.13
2024-04-30T08:40:37.053Z,3.85
2024-04-30T08:43:04.245Z,3.10
2024-04-30T08:45:31.362Z,2.40
2024-04-30T08:48:00.651Z,2.80
2024-04-30T08:50:30.284Z,2.58
2024-04-30T08:52:57.663Z,2.67
2024-04-30T08:55:24.919Z,2.30
2024-04-30T08:57:51.738Z,2.45
2024-04-30T09:00:18.477Z,2.60
2024-04-30T09:02:53.145Z,2.65
2024-04-30T09:05:22.769Z,2.50
2024-04-30T09:07:49.539Z,2.60
2024-04-30T09:10:16.357Z,2.35
2024-04-30T09:12:43.044Z,2.70
2024-04-30T09:15:17.049Z,2.40
2024-04-30T09:17:44.012Z,2.45
2024-04-30T09:20:11.228Z,2.97
2024-04-30T09:22:53.994Z,2.50
2024-04-30T09:25:32.612Z,2.28
2024-04-30T09:27:59.876Z,2.17
2024-04-30T09:30:26.628Z,2.00
2024-04-30T09:32:53.513Z,1.93
2024-04-30T09:35:27.537Z,2.70
2024-04-30T09:38:01.501Z,2.47
2024-04-30T09:40:32.863Z,2.08
2024-04-30T09:43:00.899Z,2.45
2024-04-30T09:45:31.160Z,2.30
2024-04-30T09:47:58.381Z,2.40
2024-04-30T09:50:25.619Z,2.40
2024-04-30T09:52:55.264Z,2.65
2024-04-30T09:55:25.715Z,2.70
2024-04-30T09:57:54.445Z,2.33
2024-04-30T10:00:25.789Z,2.40
2024-04-30T10:02:56.908Z,2.85
2024-04-30T10:05:29.704Z,2.58
2024-04-30T10:07:58.618Z,2.42
2024-04-30T10:10:29.394Z,2.23
2024-04-30T10:13:07.672Z,2.20
2024-04-30T10:15:34.821Z,2.35
2024-04-30T10:18:01.964Z,2.53
2024-04-30T10:20:29.890Z,2.53
2024-04-30T10:22:56.598Z,2.00
2024-04-30T10:25:24.580Z,2.33
2024-04-30T10:27:52.404Z,2.70
2024-04-30T10:30:23.225Z,2.60
2024-04-30T10:32:50.013Z,2.05
2024-04-30T10:35:16.859Z,2.67
2024-04-30T10:37:44.173Z,2.40
2024-04-30T10:40:17.370Z,2.72
2024-04-30T10:42:44.311Z,2.28
2024-04-30T10:45:21.857Z,2.20
2024-04-30T10:47:48.565Z,1.80
2024-04-30T10:50:19.024Z,2.30
2024-04-30T10:52:47.571Z,2.55
2024-04-30T10:55:15.594Z,1.90
2024-04-30T10:57:44.122Z,1.80
2024-04-30T11:00:12.325Z,2.37
2024-04-30T11:02:39.057Z,1.98
2024-04-30T11:05:16.105Z,2.30
2024-04-30T11:07:59.689Z,2.60
2024-04-30T11:10:30.579Z,2.08
2024-04-30T11:13:01.546Z,1.60
2024-04-30T11:15:28.270Z,1.40
2024-04-30T11:17:55.372Z,1.70
2024-04-30T11:20:24.621Z,1.90
2024-04-30T11:22:51.419Z,2.00
2024-04-30T11:25:20.571Z,1.60
2024-04-30T11:27:47.277Z,1.85
2024-04-30T11:30:13.990Z,1.83
2024-04-30T11:32:40.837Z,1.70
2024-04-30T11:35:07.720Z,1.60
2024-04-30T11:37:37.908Z,1.30
2024-04-30T11:40:05.318Z,1.58
2024-04-30T11:42:42.394Z,1.85
2024-04-30T11:45:16.625Z,1.30
2024-04-30T11:47:43.345Z,1.30
2024-04-30T11:50:10.353Z,1.37
2024-04-30T11:52:42.567Z,1.70
2024-04-30T11:55:10.781Z,1.40
2024-04-30T11:57:38.091Z,1.38
2024-04-30T12:00:05.380Z,1.58
2024-04-30T12:02:32.276Z,1.50
2024-04-30T12:04:59.255Z,1.75
2024-04-30T12:07:28.425Z,2.00
2024-04-30T12:09:55.204Z,1.48
2024-04-30T12:12:21.893Z,1.40
2024-04-30T12:14:48.574Z,1.50
2024-04-30T12:17:15.396Z,1.20
2024-04-30T12:19:45.441Z,1.60
2024-04-30T12:22:12.216Z,1.42
2024-04-30T12:24:40.117Z,1.58
2024-04-30T12:27:06.801Z,1.60
2024-04-30T12:29:33.501Z,1.80
2024-04-30T12:32:00.183Z,2.40
2024-04-30T12:34:26.844Z,1.33
2024-04-30T12:36:53.555Z,1.00
2024-04-30T12:39:20.206Z,0.93
2024-04-30T12:41:46.826Z,0.90
2024-04-30T12:44:14.841Z,0.80
2024-04-30T12:46:42.366Z,0.82
2024-04-30T12:49:09.086Z,0.80
2024-04-30T12:51:35.756Z,0.87
2024-04-30T12:54:02.487Z,1.20
2024-04-30T12:56:33.032Z,1.08
2024-04-30T12:59:00.053Z,1.40
2024-04-30T13:01:27.035Z,1.33
2024-04-30T13:03:59.653Z,1.27
2024-04-30T13:06:26.491Z,0.88
2024-04-30T13:08:53.585Z,0.80
2024-04-30T13:11:20.517Z,0.60
2024-04-30T13:13:47.575Z,0.80
2024-04-30T13:16:14.520Z,1.10
2024-04-30T13:18:41.802Z,1.17
2024-04-30T13:21:14.459Z,1.40
2024-04-30T13:23:41.432Z,1.92
2024-04-30T13:26:08.427Z,1.33
2024-04-30T13:28:36.836Z,1.50
2024-04-30T13:31:03.824Z,1.73
2024-04-30T13:33:31.061Z,1.50
2024-04-30T13:36:01.329Z,1.52
2024-04-30T13:38:28.092Z,1.60
2024-04-30T13:40:54.699Z,1.40
2024-04-30T13:43:21.442Z,1.20
2024-04-30T13:45:49.156Z,1.70
2024-04-30T13:48:15.924Z,1.15
2024-04-30T13:50:42.591Z,1.27
2024-04-30T13:53:09.499Z,1.40
2024-04-30T13:55:36.376Z,1.55
2024-04-30T13:58:03.116Z,1.75
2024-04-30T14:00:29.764Z,1.73
2024-04-30T14:02:56.739Z,1.70
2024-04-30T14:05:25.461Z,1.60
2024-04-30T14:07:53.833Z,1.70
2024-04-30T14:10:20.583Z,1.40
2024-04-30T14:12:49.242Z,1.38
2024-04-30T14:15:16.469Z,1.45
2024-04-30T14:17:43.186Z,1.17
2024-04-30T14:20:10.139Z,1.00
2024-04-30T14:22:36.834Z,1.50
2024-04-30T14:25:03.612Z,1.30
2024-04-30T14:27:30.410Z,1.35
2024-04-30T14:29:57.056Z,0.70
2024-04-30T14:32:24.944Z,1.17
2024-04-30T14:34:51.715Z,1.48
2024-04-30T14:37:18.656Z,1.20
2024-04-30T14:39:45.414Z,1.20
2024-04-30T14:42:12.456Z,1.30
2024-04-30T14:44:39.335Z,1.30
2024-04-30T14:47:05.957Z,1.10
2024-04-30T14:49:32.658Z,1.60
2024-04-30T14:51:59.312Z,1.90
2024-04-30T14:54:26.034Z,1.60
2024-04-30T14:56:55.230Z,1.60
2024-04-30T14:59:23.128Z,1.80
2024-04-30T15:01:49.890Z,1.50
2024-04-30T15:04:16.769Z,1.80
2024-04-30T15:06:43.511Z,1.30
2024-04-30T15:09:10.794Z,1.50
2024-04-30T15:11:37.730Z,1.80
2024-04-30T15:14:05.376Z,1.40
2024-04-30T15:16:32.198Z,1.63
2024-04-30T15:18:58.895Z,1.60
2024-04-30T15:21:25.538Z,2.05
2024-04-30T15:23:52.182Z,1.38
2024-04-30T15:26:18.865Z,1.65
2024-04-30T15:28:45.563Z,2.22
2024-04-30T15:31:19.068Z,1.37
2024-04-30T15:33:46.343Z,1.88
2024-04-30T15:36:13.158Z,1.90
2024-04-30T15:38:40.228Z,1.58
2024-04-30T15:41:07.112Z,1.55
2024-04-30T15:43:36.272Z,1.50
2024-04-30T15:46:04.047Z,1.20
2024-04-30T15:48:30.895Z,1.33
2024-04-30T15:51:04.215Z,1.60
2024-04-30T15:53:30.977Z,1.30
2024-04-30T15:56:09.141Z,1.20
2024-04-30T15:58:41.282Z,1.13
2024-04-30T16:01:08.124Z,1.38
2024-04-30T16:03:34.888Z,1.30
2024-04-30T16:06:04.788Z,1.40
2024-04-30T16:08:31.399Z,1.20
2024-04-30T16:11:09.166Z,1.52
2024-04-30T16:13:37.712Z,1.42
2024-04-30T16:16:12.370Z,1.10
2024-04-30T16:18:44.473Z,1.20
2024-04-30T16:21:11.655Z,1.30
2024-04-30T16:23:39.064Z,2.17
2024-04-30T16:26:06.779Z,1.30
2024-04-30T16:28:34.355Z,1.00
2024-04-30T16:31:03.561Z,1.90
2024-04-30T16:33:30.704Z,1.37
2024-04-30T16:35:57.470Z,1.85
2024-04-30T16:38:24.420Z,1.55
2024-04-30T16:40:51.119Z,1.38
2024-04-30T16:43:17.718Z,1.67
2024-04-30T16:45:44.399Z,1.57
2024-04-30T16:48:11.174Z,1.70
2024-04-30T16:50:37.943Z,1.90
2024-04-30T16:53:04.820Z,1.90
2024-04-30T16:55:31.469Z,1.98
2024-04-30T16:57:59.804Z,1.83
2024-04-30T17:00:26.536Z,1.65
2024-04-30T17:02:53.321Z,1.60
2024-04-30T17:05:19.979Z,1.70
2024-04-30T17:07:46.672Z,1.80
2024-04-30T17:10:13.299Z,1.37
2024-04-30T17:12:40.065Z,1.85
2024-04-30T17:15:07.082Z,1.85
2024-04-30T17:17:33.703Z,1.60
2024-04-30T17:20:03.642Z,1.80
2024-04-30T17:22:34.202Z,1.70
2024-04-30T17:25:00.964Z,1.90
2024-04-30T17:27:29.266Z,1.88
2024-04-30T17:29:55.958Z,1.70
2024-04-30T17:32:23.270Z,1.67
2024-04-30T17:34:50.091Z,1.20
2024-04-30T17:37:18.038Z,1.48
2024-04-30T17:39:44.804Z,1.50
2024-04-30T17:42:11.574Z,1.50
2024-04-30T17:44:38.653Z,1.50
2024-04-30T17:47:06.690Z,1.60
2024-04-30T17:49:33.369Z,1.60
2024-04-30T17:52:00.185Z,1.67
2024-04-30T17:54:26.923Z,1.63
2024-04-30T17:56:53.778Z,1.65
2024-04-30T17:59:20.783Z,1.60
2024-04-30T18:01:49.159Z,1.85
2024-04-30T18:04:18.103Z,1.92
2024-04-30T18:06:45.179Z,1.83
2024-04-30T18:09:11.945Z,1.63
2024-04-30T18:11:39.615Z,1.97
2024-04-30T18:14:06.351Z,2.05
2024-04-30T18:16:33.054Z,1.40
2024-04-30T18:18:59.892Z,1.10
2024-04-30T18:21:34.026Z,1.70
2024-04-30T18:24:03.693Z,1.47
2024-04-30T18:26:30.599Z,1.33
2024-04-30T18:28:57.616Z,1.45
2024-04-30T18:31:28.486Z,1.67
2024-04-30T18:33:55.621Z,1.42
2024-04-30T18:36:24.054Z,1.70
2024-04-30T18:38:50.872Z,1.70
2024-04-30T18:41:24.941Z,1.60
2024-04-30T18:43:56.699Z,1.50
2024-04-30T18:46:23.344Z,1.40
2024-04-30T18:48:50.212Z,1.50
2024-04-30T18:51:17.966Z,1.73
2024-04-30T18:53:44.720Z,1.60
2024-04-30T18:56:16.863Z,1.38
2024-04-30T18:58:47.163Z,1.13
2024-04-30T19:01:14.969Z,2.03
2024-04-30T19:03:42.071Z,2.28
2024-04-30T19:06:10.061Z,2.30
2024-04-30T19:08:37.517Z,1.80
2024-04-30T19:11:05.608Z,3.00
2024-04-30T19:13:32.961Z,2.20
2024-04-30T19:16:04.360Z,2.10
2024-04-30T19:18:32.652Z,1.90
2024-04-30T19:21:01.951Z,1.80
2024-04-30T19:23:32.815Z,2.20
2024-04-30T19:26:00.964Z,2.07
2024-04-30T19:28:28.507Z,1.90
2024-04-30T19:30:55.198Z,1.90
2024-04-30T19:33:21.995Z,2.38
2024-04-30T19:35:48.753Z,2.17
2024-04-30T19:38:17.455Z,2.70
2024-04-30T19:40:44.959Z,2.35
2024-04-30T19:43:14.144Z,2.55
2024-04-30T19:45:41.513Z,2.03
2024-04-30T19:48:10.649Z,3.45
2024-04-30T19:50:38.416Z,2.30
2024-04-30T19:53:05.489Z,2.60
2024-04-30T19:55:32.113Z,3.30
2024-04-30T19:57:58.832Z,2.70
2024-04-30T20:00:25.600Z,2.60
2024-04-30T20:02:52.410Z,2.27
2024-04-30T20:05:19.102Z,2.08
2024-04-30T20:07:45.759Z,2.20
2024-04-30T20:10:12.668Z,2.40
2024-04-30T20:12:40.248Z,2.20
2024-04-30T20:15:07.502Z,1.83
2024-04-30T20:17:34.193Z,2.28
2024-04-30T20:20:00.857Z,2.03
2024-04-30T20:22:27.523Z,2.05
2024-04-30T20:24:54.269Z,1.98
2024-04-30T20:27:20.978Z,2.30
2024-04-30T20:29:47.679Z,2.22
2024-04-30T20:32:14.386Z,1.98
2024-04-30T20:34:41.212Z,2.53
2024-04-30T20:37:08.120Z,2.83
2024-04-30T20:39:36.974Z,2.43
2024-04-30T20:42:03.954Z,2.05
2024-04-30T20:44:30.610Z,2.45
2024-04-30T20:46:57.221Z,2.38
2024-04-30T20:49:23.909Z,2.38
2024-04-30T20:51:50.618Z,2.20
2024-04-30T20:54:17.311Z,2.17
2024-04-30T20:56:43.966Z,2.22
2024-04-30T20:59:11.020Z,1.92
2024-04-30T21:01:37.759Z,2.83
2024-04-30T21:04:04.910Z,2.40
2024-04-30T21:06:31.647Z,2.53
2024-04-30T21:08:58.386Z,2.55
2024-04-30T21:11:24.982Z,2.70
2024-04-30T21:13:51.686Z,2.67
2024-04-30T21:16:19.875Z,2.20
2024-04-30T21:18:47.116Z,2.40
2024-04-30T21:21:13.920Z,2.40
2024-04-30T21:23:43.425Z,2.42
2024-04-30T21:26:11.128Z,1.80
2024-04-30T21:28:38.251Z,2.33
2024-04-30T21:31:05.203Z,2.83
2024-04-30T21:33:32.270Z,2.40
2024-04-30T21:35:59.266Z,2.70
2024-04-30T21:38:25.903Z,2.40
2024-04-30T21:40:53.242Z,2.70
2024-04-30T21:43:19.991Z,2.20
2024-04-30T21:45:46.676Z,2.63
2024-04-30T21:48:13.476Z,2.40
2024-04-30T21:50:40.200Z,2.42
2024-04-30T21:53:06.867Z,2.30
2024-04-30T21:55:33.525Z,2.70
2024-04-30T21:58:00.260Z,2.35
2024-04-30T22:00:27.026Z,2.03
2024-04-30T22:02:57.718Z,2.60
2024-04-30T22:05:29.080Z,2.20
2024-04-30T22:07:55.722Z,2.63
2024-04-30T22:10:24.044Z,3.30
2024-04-30T22:12:50.794Z,3.25
2024-04-30T22:15:19.008Z,3.22
2024-04-30T22:17:46.059Z,3.07
2024-04-30T22:20:13.069Z,2.72
2024-04-30T22:22:39.694Z,3.42
2024-04-30T22:25:06.550Z,3.30
2024-04-30T22:27:33.395Z,3.67
2024-04-30T22:30:08.898Z,3.33
2024-04-30T22:32:44.362Z,3.58
2024-04-30T22:35:11.212Z,3.40
2024-04-30T22:37:37.907Z,3.70
2024-04-30T22:40:05.167Z,4.47
2024-04-30T22:42:32.008Z,4.47
2024-04-30T22:44:58.788Z,3.92
2024-04-30T22:47:25.611Z,4.20
2024-04-30T22:49:52.295Z,4.03
2024-04-30T22:52:18.903Z,3.70
2024-04-30T22:54:50.590Z,4.13
2024-04-30T22:57:17.729Z,4.05
2024-04-30T22:59:44.373Z,3.88
2024-04-30T23:02:11.159Z,3.90
2024-04-30T23:04:37.969Z,3.75
2024-04-30T23:07:05.027Z,4.00
2024-04-30T23:09:31.820Z,4.38
2024-04-30T23:11:58.624Z,4.43
2024-04-30T23:14:25.259Z,4.45
2024-04-30T23:16:51.916Z,5.00
2024-04-30T23:19:18.761Z,4.37
2024-04-30T23:21:45.752Z,4.25
2024-04-30T23:24:12.547Z,4.05
2024-04-30T23:26:39.251Z,4.00
2024-04-30T23:29:05.874Z,4.55
2024-04-30T23:31:32.626Z,4.40
2024-04-30T23:33:59.480Z,4.30
2024-04-30T23:36:26.188Z,4.70
2024-04-30T23:38:52.836Z,4.38
2024-04-30T23:41:19.596Z,4.72
2024-04-30T23:43:46.316Z,4.20
2024-04-30T23:46:13.006Z,4.70
2024-04-30T23:48:39.726Z,4.70
2024-04-30T23:51:13.769Z,4.93
2024-04-30T23:53:44.366Z,5.50
2024-04-30T23:56:12.889Z,4.67
2024-04-30T23:58:39.936Z,4.45
